THUNDERSTORM

Not for real navigation. The accuracy of this data is not assured See disclaimer for more information



ICAO NAME COUNTRY WIND Kt GUST Kt VIS m TEMP/DEW C BARO METAR
KDRT DEL RIO INTERNATIONAL AIRPORT TX United States 18 25 1600 12/12 30.01 KDRT 150753Z AUTO 33018G25KT 1 0.75SM +TSRA BR OVC015 12/12 A3001 RMK AO2 PK WND 35026/0700 WSHFT 07
PAYA YAKUTAT AIRPORT AK United States 11 0 1600 11/10 29.78 PAYA 150753Z AUTO 10011KT 1 0.5SM RA BR BKN011 OVC014 11/10 A2978 RMK AO2 SLP086 P0010 T01110100 TS
KADF 8 0 1600 21/20 30.01 KADF 150756Z AUTO 29008KT 1 0.5SM +RA BR FEW007 BKN036 OVC044 21/20 A3001 RMK AO2 PRESRR SLP164 P004
VOTK 6 0 3000 26/26 29.85 VOTK 150730Z 07006KT 3000 TSRA SCT020 FEW030CB OVC080 26/26 Q1011 NOSIG
PADQ KODIAK AIRPORT AK United States 18 0 3200 10/9 29.52 PADQ 150753Z AUTO 08018KT 2 0.5SM -RA BR OVC003 10/09 A2952 RMK AO2 RAB02 SLP996 P0000 T01000094 TS

Show more